createdAt,value
2018-09-03T00:01:35.723Z,78.75
2018-09-03T00:04:03.826Z,79.09
2018-09-03T00:06:31.906Z,79.16
2018-09-03T00:09:00.287Z,79.60
2018-09-03T00:11:28.527Z,79.76
2018-09-03T00:13:56.621Z,79.28
2018-09-03T00:16:24.687Z,79.28
2018-09-03T00:18:52.783Z,80.35
2018-09-03T00:21:20.919Z,79.41
2018-09-03T00:23:52.947Z,79.84
2018-09-03T00:26:21.039Z,79.90
2018-09-03T00:28:49.169Z,79.48
2018-09-03T00:33:28.387Z,79.92
2018-09-03T00:36:01.783Z,76.74
2018-09-03T00:38:35.370Z,77.86
2018-09-03T00:41:08.855Z,78.66
2018-09-03T00:43:42.455Z,76.28
2018-09-03T00:46:15.874Z,78.75
2018-09-03T00:48:44.045Z,75.94
2018-09-03T00:51:12.119Z,74.87
2018-09-03T00:53:40.227Z,78.28
2018-09-03T00:56:08.291Z,78.59
2018-09-03T00:58:36.379Z,78.58
2018-09-03T01:01:04.469Z,79.16
2018-09-03T01:03:32.540Z,79.75
2018-09-03T01:06:00.668Z,78.48
2018-09-03T01:08:28.732Z,80.61
2018-09-03T01:10:56.803Z,79.16
2018-09-03T01:13:24.903Z,79.91
2018-09-03T01:15:52.983Z,78.70
2018-09-03T01:18:21.396Z,78.04
2018-09-03T01:23:34.776Z,78.69
2018-09-03T01:26:02.881Z,80.15
2018-09-03T01:28:31.583Z,81.02
2018-09-03T01:30:59.861Z,81.32
2018-09-03T01:33:28.062Z,81.06
2018-09-03T01:35:56.170Z,81.28
2018-09-03T01:38:24.311Z,80.57
2018-09-03T01:40:52.627Z,81.11
2018-09-03T01:43:22.049Z,81.72
2018-09-03T01:45:50.507Z,81.46
2018-09-03T01:48:19.429Z,81.69
2018-09-03T01:50:47.528Z,82.79
2018-09-03T01:53:15.778Z,81.43
2018-09-03T01:55:43.971Z,82.20
2018-09-03T01:58:12.037Z,82.05
2018-09-03T02:00:40.106Z,83.34
2018-09-03T02:03:08.181Z,82.68
2018-09-03T02:05:36.570Z,82.37
2018-09-03T02:08:05.075Z,82.05
2018-09-03T02:10:33.267Z,82.36
2018-09-03T02:13:01.552Z,82.93
2018-09-03T02:15:29.571Z,82.54
2018-09-03T02:18:04.004Z,82.62
2018-09-03T02:20:32.080Z,82.15
2018-09-03T02:23:00.243Z,83.46
2018-09-03T02:25:28.381Z,83.61
2018-09-03T02:27:56.580Z,82.67
2018-09-03T02:30:24.887Z,83.04
2018-09-03T02:32:53.031Z,83.80
2018-09-03T02:35:21.092Z,83.09
2018-09-03T02:37:49.631Z,83.66
2018-09-03T02:40:17.695Z,83.60
2018-09-03T02:42:45.776Z,83.75
2018-09-03T02:45:14.004Z,83.49
2018-09-03T02:47:42.096Z,84.07
2018-09-03T02:50:10.196Z,83.50
2018-09-03T02:52:38.326Z,83.57
2018-09-03T02:55:07.027Z,83.56
2018-09-03T02:57:35.720Z,84.39
2018-09-03T03:00:03.839Z,84.81
2018-09-03T03:02:31.956Z,84.47
2018-09-03T03:05:00.072Z,84.86
2018-09-03T03:07:28.281Z,83.76
2018-09-03T03:09:56.395Z,84.57
2018-09-03T03:12:25.603Z,85.92
2018-09-03T03:14:55.619Z,85.75
2018-09-03T03:17:24.801Z,86.19
2018-09-03T03:19:52.921Z,85.87
2018-09-03T03:22:21.165Z,86.52
2018-09-03T03:24:50.082Z,86.47
2018-09-03T03:27:18.171Z,85.59
2018-09-03T03:29:46.251Z,86.02
2018-09-03T03:32:15.509Z,86.65
2018-09-03T03:34:43.669Z,86.91
2018-09-03T03:37:11.759Z,87.11
2018-09-03T03:39:39.859Z,86.18
2018-09-03T03:42:08.164Z,86.55
2018-09-03T03:44:36.269Z,86.08
2018-09-03T03:47:04.424Z,86.58
2018-09-03T03:49:33.069Z,86.31
2018-09-03T03:52:01.339Z,86.94
2018-09-03T03:54:30.078Z,86.97
2018-09-03T03:56:58.296Z,87.99
2018-09-03T03:59:26.448Z,87.91
2018-09-03T04:01:54.529Z,87.93
2018-09-03T04:04:22.660Z,87.77
2018-09-03T04:06:50.775Z,87.51
2018-09-03T04:09:18.852Z,87.73
2018-09-03T04:11:47.124Z,87.51
2018-09-03T04:14:15.211Z,88.29
2018-09-03T04:16:43.272Z,87.74
2018-09-03T04:19:11.338Z,88.88
2018-09-03T04:21:39.428Z,88.54
2018-09-03T04:24:07.669Z,88.28
2018-09-03T04:26:35.778Z,88.72
2018-09-03T04:29:03.898Z,88.10
2018-09-03T04:31:32.174Z,88.02
2018-09-03T04:34:00.266Z,88.04
2018-09-03T04:36:28.673Z,88.79
2018-09-03T04:38:56.864Z,88.75
2018-09-03T04:41:25.122Z,89.90
2018-09-03T04:43:53.201Z,89.84
2018-09-03T04:46:21.370Z,89.07
2018-09-03T04:48:50.267Z,90.40
2018-09-03T04:51:18.326Z,90.49
2018-09-03T04:53:46.460Z,90.49
2018-09-03T04:56:14.679Z,90.47
2018-09-03T04:58:43.131Z,91.16
2018-09-03T05:01:11.233Z,90.43
2018-09-03T05:03:40.120Z,89.64
2018-09-03T05:06:08.208Z,90.65
2018-09-03T05:08:36.257Z,90.23
2018-09-03T05:11:04.387Z,90.43
2018-09-03T05:13:32.537Z,90.11
2018-09-03T05:16:00.663Z,90.96
2018-09-03T05:18:28.731Z,90.39
2018-09-03T05:20:56.823Z,90.13
2018-09-03T05:23:24.941Z,90.54
2018-09-03T05:25:53.045Z,90.61
2018-09-03T05:28:21.182Z,89.68
2018-09-03T05:30:49.324Z,89.31
2018-09-03T05:33:17.655Z,89.47
2018-09-03T05:35:45.858Z,90.83
2018-09-03T05:38:13.949Z,90.39
2018-09-03T05:40:42.298Z,90.18
2018-09-03T05:43:10.518Z,90.04
2018-09-03T05:45:38.502Z,90.52
2018-09-03T05:48:06.719Z,90.11
2018-09-03T05:50:34.814Z,89.84
2018-09-03T05:53:03.291Z,90.13
2018-09-03T05:55:31.384Z,90.03
2018-09-03T05:57:59.445Z,90.19
2018-09-03T06:00:27.508Z,89.43
2018-09-03T06:02:55.590Z,89.73
2018-09-03T06:05:23.941Z,89.85
2018-09-03T06:07:52.023Z,90.09
2018-09-03T06:10:24.273Z,90.02
2018-09-03T06:12:52.306Z,90.04
2018-09-03T06:15:20.758Z,89.35
2018-09-03T06:17:48.932Z,89.19
2018-09-03T06:20:17.103Z,89.25
2018-09-03T06:22:45.281Z,89.46
2018-09-03T06:25:13.500Z,89.83
2018-09-03T06:27:41.621Z,89.48
2018-09-03T06:30:09.906Z,89.68
2018-09-03T06:32:38.842Z,89.24
2018-09-03T06:35:07.099Z,89.73
2018-09-03T06:37:35.169Z,89.33
2018-09-03T06:40:03.533Z,88.56
2018-09-03T06:42:31.738Z,89.17
2018-09-03T06:44:59.811Z,88.91
2018-09-03T06:47:30.772Z,89.72
2018-09-03T06:49:59.972Z,89.25
2018-09-03T06:52:28.166Z,88.95
2018-09-03T06:54:56.362Z,89.47
2018-09-03T06:57:24.625Z,89.55
2018-09-03T06:59:52.790Z,88.48
2018-09-03T07:02:22.933Z,87.89
2018-09-03T07:04:51.039Z,88.67
2018-09-03T07:07:19.143Z,88.03
2018-09-03T07:09:47.226Z,87.71
2018-09-03T07:12:15.427Z,87.99
2018-09-03T07:14:43.615Z,88.18
2018-09-03T07:17:12.390Z,88.21
2018-09-03T07:19:40.649Z,88.19
2018-09-03T07:22:08.874Z,88.60
2018-09-03T07:24:37.063Z,87.88
2018-09-03T07:27:05.378Z,87.36
2018-09-03T07:29:33.450Z,87.47
2018-09-03T07:32:01.572Z,88.59
2018-09-03T07:34:30.211Z,86.79
2018-09-03T07:36:58.351Z,85.88
2018-09-03T07:39:26.524Z,86.93
2018-09-03T07:41:54.629Z,86.06
2018-09-03T07:44:22.818Z,86.60
2018-09-03T07:46:52.200Z,86.07
2018-09-03T07:49:25.309Z,86.16
2018-09-03T07:51:53.378Z,85.98
2018-09-03T07:54:21.469Z,85.77
2018-09-03T07:56:49.593Z,85.98
2018-09-03T07:59:17.747Z,85.45
2018-09-03T08:01:45.926Z,85.48
2018-09-03T08:04:14.039Z,84.59
2018-09-03T08:06:42.114Z,84.61
2018-09-03T08:09:11.438Z,84.39
2018-09-03T08:11:39.632Z,85.30
2018-09-03T08:14:07.687Z,84.60
2018-09-03T08:16:35.775Z,84.27
2018-09-03T08:19:03.899Z,84.00
2018-09-03T08:21:32.285Z,84.03
2018-09-03T08:24:00.319Z,83.53
2018-09-03T08:26:28.462Z,83.74
2018-09-03T08:28:56.546Z,83.46
2018-09-03T08:31:24.825Z,83.52
2018-09-03T08:33:53.589Z,83.93
2018-09-03T08:36:23.510Z,83.21
2018-09-03T08:38:51.634Z,82.70
2018-09-03T08:41:20.291Z,81.24
2018-09-03T08:43:48.375Z,81.55
2018-09-03T08:46:16.454Z,81.52
2018-09-03T08:48:44.645Z,81.05
2018-09-03T08:51:12.831Z,81.41
2018-09-03T08:53:40.902Z,80.86
2018-09-03T08:56:08.995Z,80.25
2018-09-03T08:58:37.799Z,79.71
2018-09-03T09:01:05.924Z,80.56
2018-09-03T09:03:39.427Z,79.06
2018-09-03T09:06:07.511Z,78.38
2018-09-03T09:08:35.637Z,77.54
2018-09-03T09:11:04.107Z,77.45
2018-09-03T09:13:32.364Z,77.05
2018-09-03T09:16:00.475Z,76.89
2018-09-03T09:18:28.586Z,75.75
2018-09-03T09:20:56.722Z,75.31
2018-09-03T09:23:24.845Z,74.68
2018-09-03T09:25:52.941Z,74.37
2018-09-03T09:28:21.993Z,72.85
2018-09-03T09:30:50.243Z,69.74
2018-09-03T09:33:18.382Z,69.92
2018-09-03T09:35:46.507Z,69.44
2018-09-03T09:38:15.002Z,69.51
2018-09-03T09:40:43.075Z,70.10
2018-09-03T09:43:11.279Z,69.87
2018-09-03T09:45:39.377Z,69.48
2018-09-03T09:48:07.452Z,70.22
2018-09-03T09:50:35.615Z,68.29
2018-09-03T09:53:03.705Z,68.72
2018-09-03T09:55:31.778Z,68.61
2018-09-03T09:57:59.823Z,68.71
2018-09-03T10:00:33.830Z,69.33
2018-09-03T10:03:01.917Z,67.26
2018-09-03T10:05:30.054Z,69.41
2018-09-03T10:07:58.170Z,71.35
2018-09-03T10:10:26.281Z,70.70
2018-09-03T10:12:54.319Z,70.78
2018-09-03T10:15:22.572Z,70.50
2018-09-03T10:17:52.381Z,69.09
2018-09-03T10:20:20.566Z,68.82
2018-09-03T10:22:48.706Z,67.68
2018-09-03T10:25:16.773Z,64.78
2018-09-03T10:27:44.863Z,62.98
2018-09-03T10:30:12.960Z,63.65
2018-09-03T10:32:41.287Z,63.90
2018-09-03T10:35:09.384Z,64.65
2018-09-03T10:37:37.727Z,63.85
2018-09-03T10:40:06.272Z,64.08
2018-09-03T10:42:34.707Z,60.80
2018-09-03T10:45:02.792Z,59.26
2018-09-03T10:47:30.990Z,58.80
2018-09-03T10:49:59.009Z,61.25
2018-09-03T10:52:27.067Z,61.92
2018-09-03T10:54:55.139Z,61.22
2018-09-03T10:57:23.279Z,61.19
2018-09-03T10:59:52.017Z,63.05
2018-09-03T11:02:20.116Z,62.11
2018-09-03T11:04:48.202Z,61.89
2018-09-03T11:07:16.292Z,62.11
2018-09-03T11:09:44.395Z,62.25
2018-09-03T11:12:12.564Z,63.50
2018-09-03T11:14:40.632Z,63.99
2018-09-03T11:17:08.750Z,63.69
2018-09-03T11:19:42.144Z,64.14
2018-09-03T11:22:10.227Z,61.73
2018-09-03T11:24:38.385Z,61.52
2018-09-03T11:27:06.512Z,59.25
2018-09-03T11:29:34.609Z,58.93
2018-09-03T11:32:02.907Z,56.92
2018-09-03T11:34:31.051Z,57.85
2018-09-03T11:36:59.270Z,58.16
2018-09-03T11:39:27.551Z,59.90
2018-09-03T11:41:55.674Z,59.86
2018-09-03T11:44:23.774Z,58.79
2018-09-03T11:46:52.150Z,58.24
2018-09-03T11:49:20.209Z,58.05
2018-09-03T11:51:48.322Z,59.03
2018-09-03T11:54:16.510Z,57.78
2018-09-03T11:56:44.667Z,58.62
2018-09-03T11:59:12.831Z,58.40
2018-09-03T12:01:40.939Z,57.36
2018-09-03T12:04:09.015Z,58.74
2018-09-03T12:06:37.180Z,60.72
2018-09-03T12:09:07.930Z,60.09
2018-09-03T12:11:36.059Z,61.19
2018-09-03T12:14:08.382Z,61.05
2018-09-03T12:16:36.506Z,63.08
2018-09-03T12:19:04.787Z,63.17
2018-09-03T12:21:33.319Z,63.49
2018-09-03T12:24:01.416Z,62.86
2018-09-03T12:26:29.567Z,62.07
2018-09-03T12:28:58.031Z,62.48
2018-09-03T12:31:26.251Z,63.06
2018-09-03T12:33:54.326Z,62.95
2018-09-03T12:36:22.481Z,62.62
2018-09-03T12:38:50.669Z,61.81
2018-09-03T12:41:18.913Z,63.38
2018-09-03T12:43:47.278Z,62.84
2018-09-03T12:46:15.421Z,62.39
2018-09-03T12:48:43.550Z,63.00
2018-09-03T12:51:11.701Z,63.44
2018-09-03T12:53:39.792Z,61.90
2018-09-03T12:56:07.919Z,62.02
2018-09-03T12:58:36.114Z,62.08
2018-09-03T13:01:04.250Z,60.78
2018-09-03T13:03:32.415Z,61.96
2018-09-03T13:06:00.566Z,63.11
2018-09-03T13:08:28.901Z,61.96
2018-09-03T13:10:57.002Z,62.38
2018-09-03T13:13:25.168Z,61.65
2018-09-03T13:15:53.478Z,62.66
2018-09-03T13:18:22.614Z,62.59
2018-09-03T13:20:50.703Z,61.60
2018-09-03T13:23:19.153Z,61.58
2018-09-03T13:25:47.267Z,61.96
2018-09-03T13:28:15.474Z,61.98
2018-09-03T13:30:43.803Z,61.25
2018-09-03T13:33:12.421Z,61.26
2018-09-03T13:35:40.565Z,61.29
2018-09-03T13:38:09.340Z,63.14
2018-09-03T13:40:38.177Z,62.30
2018-09-03T13:43:06.887Z,61.53
2018-09-03T13:45:35.058Z,61.95
2018-09-03T13:48:03.170Z,60.99
2018-09-03T13:50:31.279Z,60.77
2018-09-03T13:52:59.506Z,61.06
2018-09-03T13:55:27.686Z,61.46
2018-09-03T13:57:56.079Z,62.61
2018-09-03T14:00:24.344Z,61.63
2018-09-03T14:02:55.095Z,60.60
2018-09-03T14:05:23.611Z,59.89
2018-09-03T14:07:52.826Z,60.51
2018-09-03T14:10:20.968Z,61.14
2018-09-03T14:12:49.298Z,61.03
2018-09-03T14:15:17.345Z,59.42
2018-09-03T14:17:45.507Z,57.71
2018-09-03T14:20:13.627Z,57.74
2018-09-03T14:22:41.718Z,56.60
2018-09-03T14:25:09.814Z,56.48
2018-09-03T14:27:37.957Z,54.89
2018-09-03T14:30:06.218Z,55.58
2018-09-03T14:32:34.376Z,57.70
2018-09-03T14:35:02.538Z,54.20
2018-09-03T14:37:30.731Z,55.81
2018-09-03T14:39:58.953Z,59.84
2018-09-03T14:42:27.147Z,60.19
2018-09-03T14:44:55.618Z,59.41
2018-09-03T14:47:25.170Z,58.38
2018-09-03T14:49:53.252Z,58.75
2018-09-03T14:52:21.341Z,57.00
2018-09-03T14:54:49.485Z,57.79
2018-09-03T14:57:17.566Z,59.68
2018-09-03T14:59:45.843Z,59.95
2018-09-03T15:02:14.104Z,59.72
2018-09-03T15:04:42.127Z,60.20
2018-09-03T15:07:10.330Z,61.22
2018-09-03T15:09:38.589Z,61.27
2018-09-03T15:12:06.636Z,61.04
2018-09-03T15:14:34.882Z,61.03
2018-09-03T15:17:02.942Z,61.28
2018-09-03T15:19:31.002Z,61.45
2018-09-03T15:21:59.043Z,60.86
2018-09-03T15:24:27.212Z,61.90
2018-09-03T15:26:55.253Z,59.73
2018-09-03T15:29:27.726Z,54.95
2018-09-03T15:31:55.796Z,53.81
2018-09-03T15:34:24.010Z,56.28
2018-09-03T15:36:52.114Z,56.15
2018-09-03T15:39:20.163Z,56.83
2018-09-03T15:41:48.307Z,56.87
2018-09-03T15:44:18.366Z,58.01
2018-09-03T15:46:46.459Z,57.08
2018-09-03T15:49:14.561Z,55.61
2018-09-03T15:51:42.678Z,56.22
2018-09-03T15:54:11.523Z,57.04
2018-09-03T15:56:39.727Z,60.19
2018-09-03T15:59:08.036Z,60.67
2018-09-03T16:01:36.524Z,60.50
2018-09-03T16:04:04.690Z,59.52
2018-09-03T16:06:34.711Z,59.41
2018-09-03T16:09:02.977Z,59.41
2018-09-03T16:11:31.158Z,60.48
2018-09-03T16:13:59.587Z,58.54
2018-09-03T16:16:27.834Z,58.60
2018-09-03T16:18:55.930Z,59.42
2018-09-03T16:21:24.035Z,60.36
2018-09-03T16:23:52.150Z,61.36
2018-09-03T16:26:20.215Z,61.81
2018-09-03T16:28:49.005Z,62.89
2018-09-03T16:31:17.178Z,63.62
2018-09-03T16:33:45.270Z,63.51
2018-09-03T16:36:13.354Z,63.27
2018-09-03T16:38:41.478Z,63.36
2018-09-03T16:41:09.514Z,64.12
2018-09-03T16:43:37.662Z,64.05
2018-09-03T16:46:05.773Z,64.27
2018-09-03T16:48:33.880Z,63.87
2018-09-03T16:51:02.294Z,63.56
2018-09-03T16:53:36.674Z,63.26
2018-09-03T16:56:11.154Z,63.05
2018-09-03T16:58:39.447Z,64.42
2018-09-03T17:01:07.644Z,64.32
2018-09-03T17:03:35.680Z,65.38
2018-09-03T17:06:03.732Z,64.81
2018-09-03T17:08:31.914Z,65.55
2018-09-03T17:10:59.931Z,66.09
2018-09-03T17:13:28.224Z,66.30
2018-09-03T17:15:57.300Z,66.65
2018-09-03T17:18:25.443Z,66.50
2018-09-03T17:20:53.884Z,67.27
2018-09-03T17:23:21.974Z,66.87
2018-09-03T17:25:50.059Z,67.56
2018-09-03T17:28:18.262Z,68.48
2018-09-03T17:30:46.322Z,67.97
2018-09-03T17:33:15.307Z,68.44
2018-09-03T17:35:43.527Z,69.70
2018-09-03T17:38:11.663Z,69.93
2018-09-03T17:40:39.889Z,70.40
2018-09-03T17:43:08.013Z,70.86
2018-09-03T17:45:36.107Z,70.79
2018-09-03T17:48:04.242Z,70.81
2018-09-03T17:50:32.315Z,70.88
2018-09-03T17:53:00.397Z,70.49
2018-09-03T17:55:28.501Z,70.56
2018-09-03T17:57:56.868Z,70.98
2018-09-03T18:00:24.957Z,71.06
2018-09-03T18:02:54.014Z,71.54
2018-09-03T18:05:22.172Z,71.79
2018-09-03T18:07:50.326Z,72.27
2018-09-03T18:10:18.391Z,72.63
2018-09-03T18:12:46.543Z,72.90
2018-09-03T18:15:14.654Z,72.76
2018-09-03T18:17:42.831Z,72.97
2018-09-03T18:20:11.010Z,72.63
2018-09-03T18:22:39.084Z,72.03
2018-09-03T18:25:07.459Z,72.98
2018-09-03T18:27:35.586Z,72.50
2018-09-03T18:30:03.749Z,72.83
2018-09-03T18:32:31.963Z,73.65
2018-09-03T18:35:00.174Z,73.16
2018-09-03T18:37:28.269Z,72.79
2018-09-03T18:39:56.356Z,73.01
2018-09-03T18:42:25.236Z,74.02
2018-09-03T18:44:54.414Z,73.85
2018-09-03T18:47:22.520Z,73.70
2018-09-03T18:49:51.060Z,74.65
2018-09-03T18:52:19.260Z,73.90
2018-09-03T18:54:47.354Z,73.50
2018-09-03T18:59:42.623Z,74.74
2018-09-03T19:02:10.991Z,74.83
2018-09-03T19:04:39.179Z,74.94
2018-09-03T19:07:07.246Z,75.01
2018-09-03T19:09:35.343Z,75.08
2018-09-03T19:12:03.502Z,75.98
2018-09-03T19:14:32.495Z,75.42
2018-09-03T19:17:00.570Z,75.86
2018-09-03T19:19:28.706Z,75.24
2018-09-03T19:21:56.814Z,76.11
2018-09-03T19:24:25.371Z,75.51
2018-09-03T19:26:56.392Z,77.05
2018-09-03T19:29:24.492Z,77.17
2018-09-03T19:31:52.648Z,76.11
2018-09-03T19:34:21.511Z,77.16
2018-09-03T19:36:49.726Z,76.24
2018-09-03T19:39:18.095Z,75.61
2018-09-03T19:41:46.157Z,77.30
2018-09-03T19:44:14.208Z,77.99
2018-09-03T19:46:42.368Z,77.53
2018-09-03T19:49:10.745Z,76.87
2018-09-03T19:51:38.956Z,77.17
2018-09-03T19:54:07.070Z,77.12
2018-09-03T19:56:35.207Z,77.06
2018-09-03T19:59:03.349Z,77.19
2018-09-03T20:01:31.451Z,76.88
2018-09-03T20:03:59.568Z,77.92
2018-09-03T20:06:27.728Z,78.16
2018-09-03T20:08:55.885Z,77.59
2018-09-03T20:11:24.322Z,78.24
2018-09-03T20:13:52.401Z,77.75
2018-09-03T20:16:20.489Z,78.55
2018-09-03T20:18:48.582Z,78.97
2018-09-03T20:21:16.761Z,79.28
2018-09-03T20:23:45.018Z,79.33
2018-09-03T20:26:13.103Z,80.06
2018-09-03T20:28:41.207Z,80.00
2018-09-03T20:31:15.679Z,79.94
2018-09-03T20:33:43.807Z,80.50
2018-09-03T20:36:11.887Z,80.66
2018-09-03T20:38:39.934Z,79.69
2018-09-03T20:41:08.134Z,81.25
2018-09-03T20:43:38.538Z,81.30
2018-09-03T20:46:06.615Z,80.86
2018-09-03T20:48:34.795Z,79.36
2018-09-03T20:51:03.665Z,82.48
2018-09-03T20:53:32.581Z,83.06
2018-09-03T20:56:00.800Z,83.07
2018-09-03T20:58:28.906Z,84.45
2018-09-03T21:00:56.999Z,84.94
2018-09-03T21:03:25.147Z,85.83
2018-09-03T21:05:53.348Z,86.10
2018-09-03T21:08:21.534Z,86.18
2018-09-03T21:10:49.601Z,87.28
2018-09-03T21:13:17.747Z,86.71
2018-09-03T21:15:45.822Z,88.38
2018-09-03T21:18:13.983Z,90.17
2018-09-03T21:20:42.067Z,90.52
2018-09-03T21:23:10.126Z,89.87
2018-09-03T21:28:29.106Z,89.59
2018-09-03T21:31:00.010Z,90.60
2018-09-03T21:33:28.277Z,90.21
2018-09-03T21:35:56.576Z,90.80
2018-09-03T21:38:24.743Z,89.92
2018-09-03T21:40:53.033Z,90.12
2018-09-03T21:43:21.244Z,88.51
2018-09-03T21:45:49.603Z,89.83
2018-09-03T21:48:18.399Z,90.56
2018-09-03T21:50:46.516Z,90.46
2018-09-03T21:53:14.755Z,91.35
2018-09-03T21:55:42.991Z,90.88
2018-09-03T21:58:11.167Z,91.91
2018-09-03T22:00:39.289Z,91.73
2018-09-03T22:03:07.496Z,92.26
2018-09-03T22:05:36.433Z,92.32
2018-09-03T22:08:05.460Z,92.79
2018-09-03T22:10:33.709Z,91.17
2018-09-03T22:13:01.892Z,90.78
2018-09-03T22:15:30.239Z,91.67
2018-09-03T22:17:58.425Z,92.69
2018-09-03T22:20:26.568Z,91.51
2018-09-03T22:22:56.546Z,91.90
2018-09-03T22:25:25.024Z,93.18
2018-09-03T22:27:53.775Z,92.92
2018-09-03T22:30:21.941Z,92.98
2018-09-03T22:32:50.267Z,93.14
2018-09-03T22:35:18.364Z,92.84
2018-09-03T22:37:46.468Z,93.39
2018-09-03T22:40:14.612Z,92.89
2018-09-03T22:42:42.757Z,93.25
2018-09-03T22:45:10.859Z,93.48
2018-09-03T22:47:38.961Z,94.68
2018-09-03T22:50:07.070Z,93.40
2018-09-03T22:52:35.320Z,92.99
2018-09-03T22:55:03.408Z,94.24
2018-09-03T22:57:31.546Z,94.00
2018-09-03T23:00:00.059Z,93.64
2018-09-03T23:02:28.903Z,93.93
2018-09-03T23:04:57.830Z,94.37
2018-09-03T23:07:25.963Z,94.32
2018-09-03T23:14:53.467Z,93.14
2018-09-03T23:17:22.632Z,95.71
2018-09-03T23:19:50.781Z,96.43
2018-09-03T23:22:18.901Z,96.41
2018-09-03T23:24:47.000Z,97.18
2018-09-03T23:27:15.210Z,97.52
2018-09-03T23:29:43.540Z,97.33
2018-09-03T23:32:11.673Z,98.37
2018-09-03T23:34:39.827Z,98.82
2018-09-03T23:37:08.196Z,98.16
2018-09-03T23:39:36.623Z,99.28
2018-09-03T23:42:04.761Z,99.49
2018-09-03T23:44:32.921Z,100.00
2018-09-03T23:47:01.016Z,100.00
2018-09-03T23:49:29.191Z,100.00
2018-09-03T23:51:57.407Z,100.00
2018-09-03T23:54:25.702Z,100.00
2018-09-03T23:56:53.856Z,100.00
2018-09-03T23:59:22.196Z,100.00
